sensor_id;sensor_type;location;lat;lon;timestamp;temperature;humidity
23405;DHT22;11875;49.356;2.718;2024-01-30T00:01:26;11.50;99.90
23405;DHT22;11875;49.356;2.718;2024-01-30T00:03:51;11.50;99.90
23405;DHT22;11875;49.356;2.718;2024-01-30T00:06:20;11.60;99.90
23405;DHT22;11875;49.356;2.718;2024-01-30T00:08:49;11.70;99.90
23405;DHT22;11875;49.356;2.718;2024-01-30T00:11:15;11.60;99.90
23405;DHT22;11875;49.356;2.718;2024-01-30T00:13:41;11.50;99.90
23405;DHT22;11875;49.356;2.718;2024-01-30T00:16:07;11.50;99.90
23405;DHT22;11875;49.356;2.718;2024-01-30T00:18:34;11.50;99.90
23405;DHT22;11875;49.356;2.718;2024-01-30T00:20:59;11.50;99.90
23405;DHT22;11875;49.356;2.718;2024-01-30T00:23:25;11.30;99.90
23405;DHT22;11875;49.356;2.718;2024-01-30T00:25:50;11.20;99.90
23405;DHT22;11875;49.356;2.718;2024-01-30T00:28:16;11.10;99.90
23405;DHT22;11875;49.356;2.718;2024-01-30T00:30:42;11.00;99.90
23405;DHT22;11875;49.356;2.718;2024-01-30T00:33:09;11.60;99.90
23405;DHT22;11875;49.356;2.718;2024-01-30T00:35:34;10.70;99.90
23405;DHT22;11875;49.356;2.718;2024-01-30T00:38:00;10.70;99.90
23405;DHT22;11875;49.356;2.718;2024-01-30T00:40:26;10.60;99.90
23405;DHT22;11875;49.356;2.718;2024-01-30T00:42:52;10.70;99.90
23405;DHT22;11875;49.356;2.718;2024-01-30T00:45:17;10.70;99.90
23405;DHT22;11875;49.356;2.718;2024-01-30T00:47:44;10.60;99.90
23405;DHT22;11875;49.356;2.718;2024-01-30T00:50:11;10.60;99.90
23405;DHT22;11875;49.356;2.718;2024-01-30T00:52:36;10.50;99.90
23405;DHT22;11875;49.356;2.718;2024-01-30T00:55:05;10.50;99.90
23405;DHT22;11875;49.356;2.718;2024-01-30T00:57:30;10.40;99.90
23405;DHT22;11875;49.356;2.718;2024-01-30T00:59:57;10.40;99.90
23405;DHT22;11875;49.356;2.718;2024-01-30T01:02:22;10.40;99.90
23405;DHT22;11875;49.356;2.718;2024-01-30T01:04:48;10.40;99.90
23405;DHT22;11875;49.356;2.718;2024-01-30T01:07:14;10.40;99.90
23405;DHT22;11875;49.356;2.718;2024-01-30T01:09:39;10.40;99.90
23405;DHT22;11875;49.356;2.718;2024-01-30T01:12:05;10.50;99.90
23405;DHT22;11875;49.356;2.718;2024-01-30T01:14:31;10.40;99.90
23405;DHT22;11875;49.356;2.718;2024-01-30T01:16:57;10.40;99.90
23405;DHT22;11875;49.356;2.718;2024-01-30T01:19:22;10.30;99.90
23405;DHT22;11875;49.356;2.718;2024-01-30T01:21:48;10.20;99.90
23405;DHT22;11875;49.356;2.718;2024-01-30T01:24:14;10.20;99.90
23405;DHT22;11875;49.356;2.718;2024-01-30T01:26:39;10.20;99.90
23405;DHT22;11875;49.356;2.718;2024-01-30T01:29:06;10.20;99.90
23405;DHT22;11875;49.356;2.718;2024-01-30T01:31:37;10.10;99.90
23405;DHT22;11875;49.356;2.718;2024-01-30T01:34:12;10.20;99.90
23405;DHT22;11875;49.356;2.718;2024-01-30T01:36:38;10.10;99.90
23405;DHT22;11875;49.356;2.718;2024-01-30T01:39:04;10.20;99.90
23405;DHT22;11875;49.356;2.718;2024-01-30T01:41:30;10.20;99.90
23405;DHT22;11875;49.356;2.718;2024-01-30T01:43:57;10.20;99.90
23405;DHT22;11875;49.356;2.718;2024-01-30T01:46:23;10.20;99.90
23405;DHT22;11875;49.356;2.718;2024-01-30T01:48:49;10.20;99.90
23405;DHT22;11875;49.356;2.718;2024-01-30T01:51:16;10.20;99.90
23405;DHT22;11875;49.356;2.718;2024-01-30T01:53:42;10.20;99.90
23405;DHT22;11875;49.356;2.718;2024-01-30T01:56:08;10.20;99.90
23405;DHT22;11875;49.356;2.718;2024-01-30T01:58:34;10.10;99.90
23405;DHT22;11875;49.356;2.718;2024-01-30T02:01:00;10.10;99.90
23405;DHT22;11875;49.356;2.718;2024-01-30T02:03:27;10.20;99.90
23405;DHT22;11875;49.356;2.718;2024-01-30T02:05:53;10.30;99.90
23405;DHT22;11875;49.356;2.718;2024-01-30T02:08:20;10.50;99.90
23405;DHT22;11875;49.356;2.718;2024-01-30T02:10:46;10.60;99.90
23405;DHT22;11875;49.356;2.718;2024-01-30T02:13:11;10.70;99.90
23405;DHT22;11875;49.356;2.718;2024-01-30T02:15:37;10.50;99.90
23405;DHT22;11875;49.356;2.718;2024-01-30T02:18:03;10.50;99.90
23405;DHT22;11875;49.356;2.718;2024-01-30T02:20:30;10.40;99.90
23405;DHT22;11875;49.356;2.718;2024-01-30T02:22:58;10.40;99.90
23405;DHT22;11875;49.356;2.718;2024-01-30T02:25:40;10.40;99.90
23405;DHT22;11875;49.356;2.718;2024-01-30T02:28:12;10.50;99.90
23405;DHT22;11875;49.356;2.718;2024-01-30T02:30:45;10.50;99.90
23405;DHT22;11875;49.356;2.718;2024-01-30T02:33:11;10.50;99.90
23405;DHT22;11875;49.356;2.718;2024-01-30T02:35:37;10.50;99.90
23405;DHT22;11875;49.356;2.718;2024-01-30T02:38:03;10.50;99.90
23405;DHT22;11875;49.356;2.718;2024-01-30T02:40:29;10.40;99.90
23405;DHT22;11875;49.356;2.718;2024-01-30T02:42:54;10.40;99.90
23405;DHT22;11875;49.356;2.718;2024-01-30T02:45:20;10.40;99.90
23405;DHT22;11875;49.356;2.718;2024-01-30T02:47:46;10.30;99.90
23405;DHT22;11875;49.356;2.718;2024-01-30T02:50:12;10.30;99.90
23405;DHT22;11875;49.356;2.718;2024-01-30T02:52:37;10.40;99.90
23405;DHT22;11875;49.356;2.718;2024-01-30T02:55:03;10.30;99.90
23405;DHT22;11875;49.356;2.718;2024-01-30T02:57:29;10.30;99.90
23405;DHT22;11875;49.356;2.718;2024-01-30T02:59:55;10.30;99.90
23405;DHT22;11875;49.356;2.718;2024-01-30T03:02:20;10.20;99.90
23405;DHT22;11875;49.356;2.718;2024-01-30T03:04:46;10.30;99.90
23405;DHT22;11875;49.356;2.718;2024-01-30T03:07:12;10.20;99.90
23405;DHT22;11875;49.356;2.718;2024-01-30T03:09:38;10.20;99.90
23405;DHT22;11875;49.356;2.718;2024-01-30T03:12:04;10.20;99.90
23405;DHT22;11875;49.356;2.718;2024-01-30T03:14:31;10.20;99.90
23405;DHT22;11875;49.356;2.718;2024-01-30T03:16:57;10.20;99.90
23405;DHT22;11875;49.356;2.718;2024-01-30T03:19:22;10.20;99.90
23405;DHT22;11875;49.356;2.718;2024-01-30T03:21:48;10.20;99.90
23405;DHT22;11875;49.356;2.718;2024-01-30T03:24:13;10.20;99.90
23405;DHT22;11875;49.356;2.718;2024-01-30T03:26:39;10.20;99.90
23405;DHT22;11875;49.356;2.718;2024-01-30T03:29:05;10.30;99.90
23405;DHT22;11875;49.356;2.718;2024-01-30T03:31:30;10.30;99.90
23405;DHT22;11875;49.356;2.718;2024-01-30T03:33:56;10.30;99.90
23405;DHT22;11875;49.356;2.718;2024-01-30T03:36:22;10.30;99.90
23405;DHT22;11875;49.356;2.718;2024-01-30T03:38:47;10.40;99.90
23405;DHT22;11875;49.356;2.718;2024-01-30T03:41:16;10.30;99.90
23405;DHT22;11875;49.356;2.718;2024-01-30T03:43:41;10.30;99.90
23405;DHT22;11875;49.356;2.718;2024-01-30T03:46:07;10.30;99.90
23405;DHT22;11875;49.356;2.718;2024-01-30T03:48:33;10.50;99.90
23405;DHT22;11875;49.356;2.718;2024-01-30T03:50:59;10.40;99.90
23405;DHT22;11875;49.356;2.718;2024-01-30T03:53:24;10.40;99.90
23405;DHT22;11875;49.356;2.718;2024-01-30T03:55:50;10.40;99.90
23405;DHT22;11875;49.356;2.718;2024-01-30T03:58:16;10.40;99.90
23405;DHT22;11875;49.356;2.718;2024-01-30T04:00:42;10.40;99.90
23405;DHT22;11875;49.356;2.718;2024-01-30T04:03:07;10.30;99.90
23405;DHT22;11875;49.356;2.718;2024-01-30T04:05:33;10.30;99.90
23405;DHT22;11875;49.356;2.718;2024-01-30T04:07:59;10.30;99.90
23405;DHT22;11875;49.356;2.718;2024-01-30T04:10:24;10.20;99.90
23405;DHT22;11875;49.356;2.718;2024-01-30T04:12:51;10.20;99.90
23405;DHT22;11875;49.356;2.718;2024-01-30T04:15:17;10.10;99.90
23405;DHT22;11875;49.356;2.718;2024-01-30T04:17:43;10.10;99.90
23405;DHT22;11875;49.356;2.718;2024-01-30T04:20:18;10.10;99.90
23405;DHT22;11875;49.356;2.718;2024-01-30T04:22:44;10.10;99.90
23405;DHT22;11875;49.356;2.718;2024-01-30T04:25:11;10.10;99.90
23405;DHT22;11875;49.356;2.718;2024-01-30T04:27:37;10.00;99.90
23405;DHT22;11875;49.356;2.718;2024-01-30T04:30:03;10.00;99.90
23405;DHT22;11875;49.356;2.718;2024-01-30T04:32:29;10.00;99.90
23405;DHT22;11875;49.356;2.718;2024-01-30T04:34:55;9.90;99.90
23405;DHT22;11875;49.356;2.718;2024-01-30T04:37:20;10.00;99.90
23405;DHT22;11875;49.356;2.718;2024-01-30T04:39:46;9.90;99.90
23405;DHT22;11875;49.356;2.718;2024-01-30T04:42:12;10.00;99.90
23405;DHT22;11875;49.356;2.718;2024-01-30T04:44:37;10.10;99.90
23405;DHT22;11875;49.356;2.718;2024-01-30T04:47:03;10.20;99.90
23405;DHT22;11875;49.356;2.718;2024-01-30T04:49:31;10.20;99.90
23405;DHT22;11875;49.356;2.718;2024-01-30T04:51:57;10.10;99.90
23405;DHT22;11875;49.356;2.718;2024-01-30T04:54:23;10.00;99.90
23405;DHT22;11875;49.356;2.718;2024-01-30T04:56:49;9.90;99.90
23405;DHT22;11875;49.356;2.718;2024-01-30T04:59:14;10.00;99.90
23405;DHT22;11875;49.356;2.718;2024-01-30T05:01:40;10.00;99.90
23405;DHT22;11875;49.356;2.718;2024-01-30T05:04:09;10.00;99.90
23405;DHT22;11875;49.356;2.718;2024-01-30T05:06:34;9.90;99.90
23405;DHT22;11875;49.356;2.718;2024-01-30T05:09:00;10.00;99.90
23405;DHT22;11875;49.356;2.718;2024-01-30T05:11:26;10.00;99.90
23405;DHT22;11875;49.356;2.718;2024-01-30T05:13:52;10.10;99.90
23405;DHT22;11875;49.356;2.718;2024-01-30T05:16:17;10.10;99.90
23405;DHT22;11875;49.356;2.718;2024-01-30T05:18:43;10.00;99.90
23405;DHT22;11875;49.356;2.718;2024-01-30T05:21:10;9.90;99.90
23405;DHT22;11875;49.356;2.718;2024-01-30T05:23:36;9.90;99.90
23405;DHT22;11875;49.356;2.718;2024-01-30T05:26:02;9.80;99.90
23405;DHT22;11875;49.356;2.718;2024-01-30T05:28:29;9.80;99.90
23405;DHT22;11875;49.356;2.718;2024-01-30T05:30:58;9.80;99.90
23405;DHT22;11875;49.356;2.718;2024-01-30T05:33:24;9.80;99.90
23405;DHT22;11875;49.356;2.718;2024-01-30T05:35:50;9.80;99.90
23405;DHT22;11875;49.356;2.718;2024-01-30T05:38:16;9.80;99.90
23405;DHT22;11875;49.356;2.718;2024-01-30T05:40:41;9.80;99.90
23405;DHT22;11875;49.356;2.718;2024-01-30T05:43:07;9.90;99.90
23405;DHT22;11875;49.356;2.718;2024-01-30T05:45:33;10.00;99.90
23405;DHT22;11875;49.356;2.718;2024-01-30T05:48:03;10.00;99.90
23405;DHT22;11875;49.356;2.718;2024-01-30T05:50:28;10.00;99.90
23405;DHT22;11875;49.356;2.718;2024-01-30T05:52:54;9.90;99.90
23405;DHT22;11875;49.356;2.718;2024-01-30T05:55:20;10.00;99.90
23405;DHT22;11875;49.356;2.718;2024-01-30T05:57:46;10.00;99.90
23405;DHT22;11875;49.356;2.718;2024-01-30T06:00:12;10.10;99.90
23405;DHT22;11875;49.356;2.718;2024-01-30T06:02:38;10.10;99.90
23405;DHT22;11875;49.356;2.718;2024-01-30T06:05:04;10.00;99.90
23405;DHT22;11875;49.356;2.718;2024-01-30T06:07:29;10.10;99.90
23405;DHT22;11875;49.356;2.718;2024-01-30T06:09:55;10.10;99.90
23405;DHT22;11875;49.356;2.718;2024-01-30T06:12:21;10.10;99.90
23405;DHT22;11875;49.356;2.718;2024-01-30T06:14:46;10.10;99.90
23405;DHT22;11875;49.356;2.718;2024-01-30T06:17:12;10.10;99.90
23405;DHT22;11875;49.356;2.718;2024-01-30T06:19:38;10.10;99.90
23405;DHT22;11875;49.356;2.718;2024-01-30T06:22:07;10.00;99.90
23405;DHT22;11875;49.356;2.718;2024-01-30T06:24:32;10.20;99.90
23405;DHT22;11875;49.356;2.718;2024-01-30T06:26:59;10.20;99.90
23405;DHT22;11875;49.356;2.718;2024-01-30T06:29:26;10.10;99.90
23405;DHT22;11875;49.356;2.718;2024-01-30T06:31:52;10.30;99.90
23405;DHT22;11875;49.356;2.718;2024-01-30T06:34:18;10.50;99.90
23405;DHT22;11875;49.356;2.718;2024-01-30T06:36:44;10.60;99.90
23405;DHT22;11875;49.356;2.718;2024-01-30T06:39:10;10.60;99.90
23405;DHT22;11875;49.356;2.718;2024-01-30T06:41:35;10.70;99.90
23405;DHT22;11875;49.356;2.718;2024-01-30T06:44:04;10.70;99.90
23405;DHT22;11875;49.356;2.718;2024-01-30T06:46:32;10.50;99.90
23405;DHT22;11875;49.356;2.718;2024-01-30T06:48:58;10.40;99.90
23405;DHT22;11875;49.356;2.718;2024-01-30T06:51:23;10.30;99.90
23405;DHT22;11875;49.356;2.718;2024-01-30T06:53:49;10.20;99.90
23405;DHT22;11875;49.356;2.718;2024-01-30T06:56:15;10.30;99.90
23405;DHT22;11875;49.356;2.718;2024-01-30T06:58:52;10.40;99.90
23405;DHT22;11875;49.356;2.718;2024-01-30T07:01:17;10.40;99.90
23405;DHT22;11875;49.356;2.718;2024-01-30T07:03:43;10.40;99.90
23405;DHT22;11875;49.356;2.718;2024-01-30T07:06:09;10.50;99.90
23405;DHT22;11875;49.356;2.718;2024-01-30T07:08:38;10.50;99.90
23405;DHT22;11875;49.356;2.718;2024-01-30T07:11:05;10.50;99.90
23405;DHT22;11875;49.356;2.718;2024-01-30T07:13:31;10.50;99.90
23405;DHT22;11875;49.356;2.718;2024-01-30T07:15:57;10.50;99.90
23405;DHT22;11875;49.356;2.718;2024-01-30T07:18:23;10.60;99.90
23405;DHT22;11875;49.356;2.718;2024-01-30T07:20:48;10.60;99.90
23405;DHT22;11875;49.356;2.718;2024-01-30T07:23:15;10.50;99.90
23405;DHT22;11875;49.356;2.718;2024-01-30T07:25:43;10.70;99.90
23405;DHT22;11875;49.356;2.718;2024-01-30T07:28:10;10.80;99.90
23405;DHT22;11875;49.356;2.718;2024-01-30T07:30:36;10.90;99.90
23405;DHT22;11875;49.356;2.718;2024-01-30T07:33:02;11.00;99.90
23405;DHT22;11875;49.356;2.718;2024-01-30T07:35:28;11.00;99.90
23405;DHT22;11875;49.356;2.718;2024-01-30T07:37:54;11.10;99.90
23405;DHT22;11875;49.356;2.718;2024-01-30T07:40:19;11.20;99.90
23405;DHT22;11875;49.356;2.718;2024-01-30T07:42:45;11.10;99.90
23405;DHT22;11875;49.356;2.718;2024-01-30T07:45:11;10.90;99.90
23405;DHT22;11875;49.356;2.718;2024-01-30T07:47:37;11.00;99.90
23405;DHT22;11875;49.356;2.718;2024-01-30T07:50:02;11.00;99.90
23405;DHT22;11875;49.356;2.718;2024-01-30T07:52:28;11.10;99.90
23405;DHT22;11875;49.356;2.718;2024-01-30T07:54:54;11.20;99.90
23405;DHT22;11875;49.356;2.718;2024-01-30T07:57:20;11.10;99.90
23405;DHT22;11875;49.356;2.718;2024-01-30T07:59:46;11.10;99.90
23405;DHT22;11875;49.356;2.718;2024-01-30T08:02:18;11.10;99.90
23405;DHT22;11875;49.356;2.718;2024-01-30T08:04:43;11.10;99.90
23405;DHT22;11875;49.356;2.718;2024-01-30T08:07:14;11.10;99.90
23405;DHT22;11875;49.356;2.718;2024-01-30T08:09:39;11.10;99.90
23405;DHT22;11875;49.356;2.718;2024-01-30T08:12:05;11.00;99.90
23405;DHT22;11875;49.356;2.718;2024-01-30T08:14:31;10.90;99.90
23405;DHT22;11875;49.356;2.718;2024-01-30T08:16:56;10.70;99.90
23405;DHT22;11875;49.356;2.718;2024-01-30T08:19:22;10.60;99.90
23405;DHT22;11875;49.356;2.718;2024-01-30T08:21:48;10.70;99.90
23405;DHT22;11875;49.356;2.718;2024-01-30T08:24:13;10.70;99.90
23405;DHT22;11875;49.356;2.718;2024-01-30T08:26:39;10.70;99.90
23405;DHT22;11875;49.356;2.718;2024-01-30T08:29:05;10.70;99.90
23405;DHT22;11875;49.356;2.718;2024-01-30T08:31:30;10.70;99.90
23405;DHT22;11875;49.356;2.718;2024-01-30T08:33:56;10.70;99.90
23405;DHT22;11875;49.356;2.718;2024-01-30T08:36:22;10.70;99.90
23405;DHT22;11875;49.356;2.718;2024-01-30T08:38:47;10.70;99.90
23405;DHT22;11875;49.356;2.718;2024-01-30T08:41:13;10.70;99.90
23405;DHT22;11875;49.356;2.718;2024-01-30T08:43:39;10.90;99.90
23405;DHT22;11875;49.356;2.718;2024-01-30T08:46:04;11.20;99.90
23405;DHT22;11875;49.356;2.718;2024-01-30T08:48:30;11.30;99.90
23405;DHT22;11875;49.356;2.718;2024-01-30T08:50:55;11.30;99.90
23405;DHT22;11875;49.356;2.718;2024-01-30T08:53:22;11.40;99.90
23405;DHT22;11875;49.356;2.718;2024-01-30T08:55:47;11.40;99.90
23405;DHT22;11875;49.356;2.718;2024-01-30T08:58:13;11.30;99.90
23405;DHT22;11875;49.356;2.718;2024-01-30T09:00:38;11.20;99.90
23405;DHT22;11875;49.356;2.718;2024-01-30T09:03:04;11.20;99.90
23405;DHT22;11875;49.356;2.718;2024-01-30T09:05:30;11.20;99.90
23405;DHT22;11875;49.356;2.718;2024-01-30T09:07:56;11.10;99.90
23405;DHT22;11875;49.356;2.718;2024-01-30T09:10:21;11.10;99.90
23405;DHT22;11875;49.356;2.718;2024-01-30T09:12:47;11.20;99.90
23405;DHT22;11875;49.356;2.718;2024-01-30T09:15:14;11.20;99.90
23405;DHT22;11875;49.356;2.718;2024-01-30T09:17:40;11.30;99.90
23405;DHT22;11875;49.356;2.718;2024-01-30T09:20:06;11.30;99.90
23405;DHT22;11875;49.356;2.718;2024-01-30T09:22:32;11.50;99.90
23405;DHT22;11875;49.356;2.718;2024-01-30T09:24:58;11.60;99.90
23405;DHT22;11875;49.356;2.718;2024-01-30T09:27:24;11.60;99.90
23405;DHT22;11875;49.356;2.718;2024-01-30T09:29:49;11.50;99.90
23405;DHT22;11875;49.356;2.718;2024-01-30T09:32:15;11.50;99.90
23405;DHT22;11875;49.356;2.718;2024-01-30T09:34:43;11.60;99.90
23405;DHT22;11875;49.356;2.718;2024-01-30T09:37:08;11.70;99.90
23405;DHT22;11875;49.356;2.718;2024-01-30T09:39:34;11.80;99.90
23405;DHT22;11875;49.356;2.718;2024-01-30T09:44:55;11.90;99.90
23405;DHT22;11875;49.356;2.718;2024-01-30T09:47:21;11.90;99.90
23405;DHT22;11875;49.356;2.718;2024-01-30T09:49:47;11.80;99.90
23405;DHT22;11875;49.356;2.718;2024-01-30T09:52:14;11.70;99.90
23405;DHT22;11875;49.356;2.718;2024-01-30T09:54:41;11.60;99.90
23405;DHT22;11875;49.356;2.718;2024-01-30T09:57:07;11.60;99.90
23405;DHT22;11875;49.356;2.718;2024-01-30T09:59:34;11.60;99.90
23405;DHT22;11875;49.356;2.718;2024-01-30T10:02:00;11.60;99.90
23405;DHT22;11875;49.356;2.718;2024-01-30T10:04:26;11.70;99.90
23405;DHT22;11875;49.356;2.718;2024-01-30T10:06:51;11.80;99.90
23405;DHT22;11875;49.356;2.718;2024-01-30T10:09:17;11.80;99.90
23405;DHT22;11875;49.356;2.718;2024-01-30T10:11:42;11.90;99.90
23405;DHT22;11875;49.356;2.718;2024-01-30T10:14:08;11.80;99.90
23405;DHT22;11875;49.356;2.718;2024-01-30T10:16:35;11.80;99.90
23405;DHT22;11875;49.356;2.718;2024-01-30T10:19:00;11.70;99.90
23405;DHT22;11875;49.356;2.718;2024-01-30T10:21:26;11.70;99.90
23405;DHT22;11875;49.356;2.718;2024-01-30T10:23:52;11.90;99.90
23405;DHT22;11875;49.356;2.718;2024-01-30T10:26:18;12.10;99.90
23405;DHT22;11875;49.356;2.718;2024-01-30T10:28:44;12.20;99.90
23405;DHT22;11875;49.356;2.718;2024-01-30T10:31:09;12.30;99.90
23405;DHT22;11875;49.356;2.718;2024-01-30T10:33:35;12.20;99.90
23405;DHT22;11875;49.356;2.718;2024-01-30T10:36:02;12.20;99.90
23405;DHT22;11875;49.356;2.718;2024-01-30T10:38:29;12.10;99.90
23405;DHT22;11875;49.356;2.718;2024-01-30T10:40:57;12.20;99.90
23405;DHT22;11875;49.356;2.718;2024-01-30T10:43:28;12.20;99.90
23405;DHT22;11875;49.356;2.718;2024-01-30T10:45:57;12.20;99.90
23405;DHT22;11875;49.356;2.718;2024-01-30T10:48:29;12.30;99.90
23405;DHT22;11875;49.356;2.718;2024-01-30T10:50:57;12.30;99.90
23405;DHT22;11875;49.356;2.718;2024-01-30T10:53:25;12.20;99.90
23405;DHT22;11875;49.356;2.718;2024-01-30T10:55:51;12.30;99.90
23405;DHT22;11875;49.356;2.718;2024-01-30T10:58:18;12.30;99.90
23405;DHT22;11875;49.356;2.718;2024-01-30T11:00:44;12.30;99.90
23405;DHT22;11875;49.356;2.718;2024-01-30T11:03:11;12.30;99.90
23405;DHT22;11875;49.356;2.718;2024-01-30T11:05:40;12.20;99.90
23405;DHT22;11875;49.356;2.718;2024-01-30T11:08:13;12.20;99.90
23405;DHT22;11875;49.356;2.718;2024-01-30T11:10:48;12.20;99.90
23405;DHT22;11875;49.356;2.718;2024-01-30T11:13:14;12.30;99.90
23405;DHT22;11875;49.356;2.718;2024-01-30T11:15:40;12.30;99.90
23405;DHT22;11875;49.356;2.718;2024-01-30T11:18:06;12.20;99.90
23405;DHT22;11875;49.356;2.718;2024-01-30T11:20:32;12.30;99.90
23405;DHT22;11875;49.356;2.718;2024-01-30T11:22:59;12.20;99.90
23405;DHT22;11875;49.356;2.718;2024-01-30T11:25:25;12.20;99.90
23405;DHT22;11875;49.356;2.718;2024-01-30T11:27:55;12.20;99.90
23405;DHT22;11875;49.356;2.718;2024-01-30T11:30:29;12.20;99.90
23405;DHT22;11875;49.356;2.718;2024-01-30T11:35:24;12.30;99.90
23405;DHT22;11875;49.356;2.718;2024-01-30T11:37:50;12.40;99.90
23405;DHT22;11875;49.356;2.718;2024-01-30T11:40:16;12.50;99.90
23405;DHT22;11875;49.356;2.718;2024-01-30T11:42:42;12.50;99.90
23405;DHT22;11875;49.356;2.718;2024-01-30T11:45:09;12.40;99.90
23405;DHT22;11875;49.356;2.718;2024-01-30T11:47:37;12.60;99.90
23405;DHT22;11875;49.356;2.718;2024-01-30T11:50:04;12.40;99.90
23405;DHT22;11875;49.356;2.718;2024-01-30T11:52:33;12.30;99.90
23405;DHT22;11875;49.356;2.718;2024-01-30T11:54:59;12.40;99.90
23405;DHT22;11875;49.356;2.718;2024-01-30T11:57:27;12.30;99.90
23405;DHT22;11875;49.356;2.718;2024-01-30T11:59:52;12.40;99.90
23405;DHT22;11875;49.356;2.718;2024-01-30T12:02:18;12.40;99.90
23405;DHT22;11875;49.356;2.718;2024-01-30T12:04:44;12.50;99.90
23405;DHT22;11875;49.356;2.718;2024-01-30T12:07:10;12.50;99.90
23405;DHT22;11875;49.356;2.718;2024-01-30T12:09:36;12.50;99.90
23405;DHT22;11875;49.356;2.718;2024-01-30T12:12:01;12.50;99.90
23405;DHT22;11875;49.356;2.718;2024-01-30T12:14:27;12.60;99.90
23405;DHT22;11875;49.356;2.718;2024-01-30T12:16:53;12.60;99.90
23405;DHT22;11875;49.356;2.718;2024-01-30T12:19:23;12.60;99.90
23405;DHT22;11875;49.356;2.718;2024-01-30T12:21:54;12.60;99.90
23405;DHT22;11875;49.356;2.718;2024-01-30T12:24:21;12.50;99.90
23405;DHT22;11875;49.356;2.718;2024-01-30T12:26:46;12.40;99.90
23405;DHT22;11875;49.356;2.718;2024-01-30T12:29:14;12.50;99.90
23405;DHT22;11875;49.356;2.718;2024-01-30T12:31:42;12.50;99.90
23405;DHT22;11875;49.356;2.718;2024-01-30T12:34:07;12.40;99.90
23405;DHT22;11875;49.356;2.718;2024-01-30T12:36:34;12.40;99.90
23405;DHT22;11875;49.356;2.718;2024-01-30T12:39:00;12.40;99.90
23405;DHT22;11875;49.356;2.718;2024-01-30T12:41:26;12.40;99.90
23405;DHT22;11875;49.356;2.718;2024-01-30T12:43:54;12.40;99.90
23405;DHT22;11875;49.356;2.718;2024-01-30T12:46:20;12.40;99.90
23405;DHT22;11875;49.356;2.718;2024-01-30T12:48:45;12.50;99.90
23405;DHT22;11875;49.356;2.718;2024-01-30T12:51:11;12.40;99.90
23405;DHT22;11875;49.356;2.718;2024-01-30T12:53:37;12.50;99.90
23405;DHT22;11875;49.356;2.718;2024-01-30T12:56:03;12.50;99.90
23405;DHT22;11875;49.356;2.718;2024-01-30T12:58:28;12.60;99.90
23405;DHT22;11875;49.356;2.718;2024-01-30T13:00:54;12.50;99.90
23405;DHT22;11875;49.356;2.718;2024-01-30T13:03:20;12.40;99.90
23405;DHT22;11875;49.356;2.718;2024-01-30T13:05:46;12.30;99.90
23405;DHT22;11875;49.356;2.718;2024-01-30T13:08:11;12.40;99.90
23405;DHT22;11875;49.356;2.718;2024-01-30T13:10:37;12.30;99.90
23405;DHT22;11875;49.356;2.718;2024-01-30T13:13:03;12.30;99.90
23405;DHT22;11875;49.356;2.718;2024-01-30T13:15:28;12.40;99.90
23405;DHT22;11875;49.356;2.718;2024-01-30T13:17:54;12.40;99.90
23405;DHT22;11875;49.356;2.718;2024-01-30T13:20:20;12.50;99.90
23405;DHT22;11875;49.356;2.718;2024-01-30T13:22:49;12.50;99.90
23405;DHT22;11875;49.356;2.718;2024-01-30T13:25:15;12.50;99.90
23405;DHT22;11875;49.356;2.718;2024-01-30T13:27:41;12.60;99.90
23405;DHT22;11875;49.356;2.718;2024-01-30T13:30:07;12.60;99.90
23405;DHT22;11875;49.356;2.718;2024-01-30T13:32:34;12.60;99.90
23405;DHT22;11875;49.356;2.718;2024-01-30T13:35:00;12.60;99.90
23405;DHT22;11875;49.356;2.718;2024-01-30T13:37:26;12.70;99.90
23405;DHT22;11875;49.356;2.718;2024-01-30T13:39:52;12.90;99.90
23405;DHT22;11875;49.356;2.718;2024-01-30T13:42:17;12.90;99.90
23405;DHT22;11875;49.356;2.718;2024-01-30T13:44:43;13.00;99.90
23405;DHT22;11875;49.356;2.718;2024-01-30T13:47:09;13.00;99.90
23405;DHT22;11875;49.356;2.718;2024-01-30T13:49:35;13.00;99.90
23405;DHT22;11875;49.356;2.718;2024-01-30T13:52:01;13.10;99.90
23405;DHT22;11875;49.356;2.718;2024-01-30T13:54:29;13.10;99.90
23405;DHT22;11875;49.356;2.718;2024-01-30T13:56:54;13.10;99.90
23405;DHT22;11875;49.356;2.718;2024-01-30T13:59:20;13.30;99.90
23405;DHT22;11875;49.356;2.718;2024-01-30T14:01:51;13.30;99.90
23405;DHT22;11875;49.356;2.718;2024-01-30T14:04:17;13.40;99.90
23405;DHT22;11875;49.356;2.718;2024-01-30T14:06:43;13.40;99.90
23405;DHT22;11875;49.356;2.718;2024-01-30T14:09:08;13.40;99.90
23405;DHT22;11875;49.356;2.718;2024-01-30T14:11:35;13.50;99.90
23405;DHT22;11875;49.356;2.718;2024-01-30T14:14:01;13.50;99.90
23405;DHT22;11875;49.356;2.718;2024-01-30T14:16:26;13.30;99.90
23405;DHT22;11875;49.356;2.718;2024-01-30T14:18:54;13.40;99.90
23405;DHT22;11875;49.356;2.718;2024-01-30T14:21:19;13.40;99.90
23405;DHT22;11875;49.356;2.718;2024-01-30T14:23:45;13.40;99.90
23405;DHT22;11875;49.356;2.718;2024-01-30T14:26:13;13.30;99.90
23405;DHT22;11875;49.356;2.718;2024-01-30T14:28:39;13.20;99.90
23405;DHT22;11875;49.356;2.718;2024-01-30T14:31:05;13.10;99.90
23405;DHT22;11875;49.356;2.718;2024-01-30T14:33:31;13.10;99.90
23405;DHT22;11875;49.356;2.718;2024-01-30T14:35:56;13.10;99.90
23405;DHT22;11875;49.356;2.718;2024-01-30T14:38:22;13.10;99.90
23405;DHT22;11875;49.356;2.718;2024-01-30T14:40:48;13.20;99.90
23405;DHT22;11875;49.356;2.718;2024-01-30T14:43:13;13.20;99.90
23405;DHT22;11875;49.356;2.718;2024-01-30T14:45:39;13.10;99.90
23405;DHT22;11875;49.356;2.718;2024-01-30T14:48:05;13.10;99.90
23405;DHT22;11875;49.356;2.718;2024-01-30T14:50:31;13.10;99.90
23405;DHT22;11875;49.356;2.718;2024-01-30T14:52:56;13.10;99.90
23405;DHT22;11875;49.356;2.718;2024-01-30T14:55:22;13.10;99.90
23405;DHT22;11875;49.356;2.718;2024-01-30T14:57:49;13.00;99.90
23405;DHT22;11875;49.356;2.718;2024-01-30T15:00:16;13.00;99.90
23405;DHT22;11875;49.356;2.718;2024-01-30T15:02:41;13.00;99.90
23405;DHT22;11875;49.356;2.718;2024-01-30T15:05:07;12.90;99.90
23405;DHT22;11875;49.356;2.718;2024-01-30T15:07:33;12.90;99.90
23405;DHT22;11875;49.356;2.718;2024-01-30T15:09:59;12.90;99.90
23405;DHT22;11875;49.356;2.718;2024-01-30T15:12:25;12.90;99.90
23405;DHT22;11875;49.356;2.718;2024-01-30T15:14:50;12.90;99.90
23405;DHT22;11875;49.356;2.718;2024-01-30T15:17:17;12.90;99.90
23405;DHT22;11875;49.356;2.718;2024-01-30T15:19:43;12.90;99.90
23405;DHT22;11875;49.356;2.718;2024-01-30T15:22:09;12.90;99.90
23405;DHT22;11875;49.356;2.718;2024-01-30T15:24:34;12.80;99.90
23405;DHT22;11875;49.356;2.718;2024-01-30T15:27:01;12.70;99.90
23405;DHT22;11875;49.356;2.718;2024-01-30T15:29:26;12.70;99.90
23405;DHT22;11875;49.356;2.718;2024-01-30T15:31:52;12.70;99.90